sensor_id;sensor_type;location;lat;lon;timestamp;pressure;altitude;pressure_sealevel;temperature
74915;BMP280;63475;45.140;-75.616;2022-12-29T00:00:16;100941.38;;;1.00
74915;BMP280;63475;45.140;-75.616;2022-12-29T00:01:17;100943.22;;;1.00
74915;BMP280;63475;45.140;-75.616;2022-12-29T00:02:18;100938.31;;;0.98
74915;BMP280;63475;45.140;-75.616;2022-12-29T00:03:19;100946.13;;;0.98
74915;BMP280;63475;45.140;-75.616;2022-12-29T00:04:20;100917.56;;;0.81
74915;BMP280;63475;45.140;-75.616;2022-12-29T00:05:21;100944.94;;;0.96
74915;BMP280;63475;45.140;-75.616;2022-12-29T00:06:22;100942.31;;;0.96
74915;BMP280;63475;45.140;-75.616;2022-12-29T00:07:23;100935.59;;;0.95
74915;BMP280;63475;45.140;-75.616;2022-12-29T00:08:24;100935.59;;;0.95
74915;BMP280;63475;45.140;-75.616;2022-12-29T00:09:39;100936.19;;;0.92
74915;BMP280;63475;45.140;-75.616;2022-12-29T00:10:40;100934.66;;;0.91
74915;BMP280;63475;45.140;-75.616;2022-12-29T00:11:42;100938.34;;;0.90
74915;BMP280;63475;45.140;-75.616;2022-12-29T00:12:42;100946.81;;;0.87
74915;BMP280;63475;45.140;-75.616;2022-12-29T00:14:02;100959.22;;;0.90
74915;BMP280;63475;45.140;-75.616;2022-12-29T00:15:22;100920.34;;;0.64
74915;BMP280;63475;45.140;-75.616;2022-12-29T00:16:43;100952.34;;;0.85
74915;BMP280;63475;45.140;-75.616;2022-12-29T00:17:44;100952.81;;;0.87
74915;BMP280;63475;45.140;-75.616;2022-12-29T00:18:45;100958.03;;;0.87
74915;BMP280;63475;45.140;-75.616;2022-12-29T00:19:47;100955.59;;;0.82
74915;BMP280;63475;45.140;-75.616;2022-12-29T00:21:09;100962.78;;;0.85
74915;BMP280;63475;45.140;-75.616;2022-12-29T00:22:30;100970.63;;;0.85
74915;BMP280;63475;45.140;-75.616;2022-12-29T00:23:50;100969.09;;;0.84
74915;BMP280;63475;45.140;-75.616;2022-12-29T00:25:10;100960.50;;;0.84
74915;BMP280;63475;45.140;-75.616;2022-12-29T00:26:30;100972.78;;;0.83
74915;BMP280;63475;45.140;-75.616;2022-12-29T00:27:49;100971.69;;;0.84
74915;BMP280;63475;45.140;-75.616;2022-12-29T00:29:09;100964.41;;;0.78
74915;BMP280;63475;45.140;-75.616;2022-12-29T00:30:29;100978.31;;;0.82
74915;BMP280;63475;45.140;-75.616;2022-12-29T00:31:48;100967.88;;;0.82
74915;BMP280;63475;45.140;-75.616;2022-12-29T00:33:29;100978.63;;;0.80
74915;BMP280;63475;45.140;-75.616;2022-12-29T00:34:48;100977.44;;;0.78
74915;BMP280;63475;45.140;-75.616;2022-12-29T00:36:31;100977.88;;;0.80
74915;BMP280;63475;45.140;-75.616;2022-12-29T00:37:38;100974.53;;;0.79
74915;BMP280;63475;45.140;-75.616;2022-12-29T00:39:02;100970.81;;;0.80
74915;BMP280;63475;45.140;-75.616;2022-12-29T00:40:21;100976.00;;;0.80
74915;BMP280;63475;45.140;-75.616;2022-12-29T00:41:40;100974.53;;;0.79
74915;BMP280;63475;45.140;-75.616;2022-12-29T00:43:00;100971.91;;;0.79
74915;BMP280;63475;45.140;-75.616;2022-12-29T00:44:19;100973.00;;;0.78
74915;BMP280;63475;45.140;-75.616;2022-12-29T00:45:20;100960.59;;;0.75
74915;BMP280;63475;45.140;-75.616;2022-12-29T00:46:21;100976.38;;;0.79
74915;BMP280;63475;45.140;-75.616;2022-12-29T00:47:22;100969.63;;;0.78
74915;BMP280;63475;45.140;-75.616;2022-12-29T00:48:23;100968.53;;;0.79
74915;BMP280;63475;45.140;-75.616;2022-12-29T00:49:43;100962.56;;;0.78
74915;BMP280;63475;45.140;-75.616;2022-12-29T00:50:44;100962.56;;;0.78
74915;BMP280;63475;45.140;-75.616;2022-12-29T00:51:45;100964.09;;;0.79
74915;BMP280;63475;45.140;-75.616;2022-12-29T00:52:46;100967.00;;;0.78
74915;BMP280;63475;45.140;-75.616;2022-12-29T00:53:47;100970.06;;;0.80
74915;BMP280;63475;45.140;-75.616;2022-12-29T00:54:48;100959.38;;;0.72
74915;BMP280;63475;45.140;-75.616;2022-12-29T00:55:49;100966.34;;;0.81
74915;BMP280;63475;45.140;-75.616;2022-12-29T00:56:52;100966.34;;;0.81
74915;BMP280;63475;45.140;-75.616;2022-12-29T00:57:53;100956.69;;;0.81
74915;BMP280;63475;45.140;-75.616;2022-12-29T00:58:54;100961.91;;;0.81
74915;BMP280;63475;45.140;-75.616;2022-12-29T00:59:55;100938.84;;;0.71
74915;BMP280;63475;45.140;-75.616;2022-12-29T01:01:07;100957.44;;;0.82
74915;BMP280;63475;45.140;-75.616;2022-12-29T01:02:09;100933.19;;;0.69
74915;BMP280;63475;45.140;-75.616;2022-12-29T01:03:10;100955.91;;;0.81
74915;BMP280;63475;45.140;-75.616;2022-12-29T01:04:12;100957.78;;;0.80
74915;BMP280;63475;45.140;-75.616;2022-12-29T01:05:13;100948.88;;;0.81
74915;BMP280;63475;45.140;-75.616;2022-12-29T01:06:14;100951.16;;;0.83
74915;BMP280;63475;45.140;-75.616;2022-12-29T01:07:15;100949.22;;;0.80
74915;BMP280;63475;45.140;-75.616;2022-12-29T01:08:16;100953.75;;;0.83
74915;BMP280;63475;45.140;-75.616;2022-12-29T01:09:17;100957.44;;;0.82
74915;BMP280;63475;45.140;-75.616;2022-12-29T01:10:37;100959.28;;;0.81
74915;BMP280;63475;45.140;-75.616;2022-12-29T01:11:39;100962.66;;;0.82
74915;BMP280;63475;45.140;-75.616;2022-12-29T01:12:39;100963.09;;;0.84
74915;BMP280;63475;45.140;-75.616;2022-12-29T01:13:40;100957.13;;;0.83
74915;BMP280;63475;45.140;-75.616;2022-12-29T01:14:42;100936.25;;;0.71
74915;BMP280;63475;45.140;-75.616;2022-12-29T01:15:52;100950.47;;;0.73
74915;BMP280;63475;45.140;-75.616;2022-12-29T01:16:54;100963.75;;;0.81
74915;BMP280;63475;45.140;-75.616;2022-12-29T01:17:55;100960.81;;;0.82
74915;BMP280;63475;45.140;-75.616;2022-12-29T01:18:56;100948.63;;;0.74
74915;BMP280;63475;45.140;-75.616;2022-12-29T01:19:57;100957.34;;;0.78
74915;BMP280;63475;45.140;-75.616;2022-12-29T01:21:02;100955.16;;;0.80
74915;BMP280;63475;45.140;-75.616;2022-12-29T01:22:03;100957.44;;;0.82
74915;BMP280;63475;45.140;-75.616;2022-12-29T01:23:04;100957.78;;;0.80
74915;BMP280;63475;45.140;-75.616;2022-12-29T01:24:06;100943.63;;;0.69
74915;BMP280;63475;45.140;-75.616;2022-12-29T01:25:07;100943.88;;;0.76
74915;BMP280;63475;45.140;-75.616;2022-12-29T01:26:09;100953.31;;;0.81
74915;BMP280;63475;45.140;-75.616;2022-12-29T01:27:10;100959.72;;;0.83
74915;BMP280;63475;45.140;-75.616;2022-12-29T01:28:11;100941.72;;;0.78
74915;BMP280;63475;45.140;-75.616;2022-12-29T01:29:12;100952.03;;;0.87
74915;BMP280;63475;45.140;-75.616;2022-12-29T01:30:13;100949.63;;;0.82
74915;BMP280;63475;45.140;-75.616;2022-12-29T01:31:15;100949.00;;;0.85
74915;BMP280;63475;45.140;-75.616;2022-12-29T01:32:15;100956.03;;;0.84
74915;BMP280;63475;45.140;-75.616;2022-12-29T01:33:16;100933.31;;;0.72
74915;BMP280;63475;45.140;-75.616;2022-12-29T01:34:18;100956.81;;;0.85
74915;BMP280;63475;45.140;-75.616;2022-12-29T01:35:18;100942.84;;;0.68
74915;BMP280;63475;45.140;-75.616;2022-12-29T01:36:19;100962.03;;;0.85
74915;BMP280;63475;45.140;-75.616;2022-12-29T01:37:20;100960.94;;;0.86
74915;BMP280;63475;45.140;-75.616;2022-12-29T01:38:21;100969.53;;;0.86
74915;BMP280;63475;45.140;-75.616;2022-12-29T01:39:22;100973.97;;;0.86
74915;BMP280;63475;45.140;-75.616;2022-12-29T01:40:23;100963.88;;;0.84
74915;BMP280;63475;45.140;-75.616;2022-12-29T01:41:25;100960.38;;;0.80
74915;BMP280;63475;45.140;-75.616;2022-12-29T01:42:26;100969.41;;;0.83
74915;BMP280;63475;45.140;-75.616;2022-12-29T01:44:47;100971.25;;;0.82
74915;BMP280;63475;45.140;-75.616;2022-12-29T01:45:51;100956.28;;;0.79
74915;BMP280;63475;45.140;-75.616;2022-12-29T01:46:53;100956.03;;;0.84
74915;BMP280;63475;45.140;-75.616;2022-12-29T01:48:04;100964.19;;;0.83
74915;BMP280;63475;45.140;-75.616;2022-12-29T01:49:16;100958.97;;;0.83
74915;BMP280;63475;45.140;-75.616;2022-12-29T01:50:21;100962.66;;;0.82
74915;BMP280;63475;45.140;-75.616;2022-12-29T01:51:25;100955.91;;;0.81
74915;BMP280;63475;45.140;-75.616;2022-12-29T01:52:29;100951.81;;;0.80
74915;BMP280;63475;45.140;-75.616;2022-12-29T01:53:32;100927.09;;;0.65
74915;BMP280;63475;45.140;-75.616;2022-12-29T01:54:42;100955.91;;;0.81
74915;BMP280;63475;45.140;-75.616;2022-12-29T01:55:48;100955.16;;;0.80
74915;BMP280;63475;45.140;-75.616;2022-12-29T01:56:51;100958.53;;;0.81
74915;BMP280;63475;45.140;-75.616;2022-12-29T01:57:55;100951.81;;;0.80
74915;BMP280;63475;45.140;-75.616;2022-12-29T01:59:06;100950.63;;;0.77
74915;BMP280;63475;45.140;-75.616;2022-12-29T02:00:11;100954.44;;;0.80
74915;BMP280;63475;45.140;-75.616;2022-12-29T02:01:13;100962.25;;;0.80
74915;BMP280;63475;45.140;-75.616;2022-12-29T02:02:15;100953.66;;;0.79
74915;BMP280;63475;45.140;-75.616;2022-12-29T02:03:17;100944.63;;;0.77
74915;BMP280;63475;45.140;-75.616;2022-12-29T02:04:23;100945.06;;;0.79
74915;BMP280;63475;45.140;-75.616;2022-12-29T02:05:36;100941.38;;;0.80
74915;BMP280;63475;45.140;-75.616;2022-12-29T02:06:58;100937.91;;;0.76
74915;BMP280;63475;45.140;-75.616;2022-12-29T02:08:01;100917.44;;;0.65
74915;BMP280;63475;45.140;-75.616;2022-12-29T02:09:03;100934.97;;;0.77
74915;BMP280;63475;45.140;-75.616;2022-12-29T02:10:04;100888.53;;;0.50
74915;BMP280;63475;45.140;-75.616;2022-12-29T02:11:05;100914.94;;;0.69
74915;BMP280;63475;45.140;-75.616;2022-12-29T02:12:07;100929.75;;;0.77
74915;BMP280;63475;45.140;-75.616;2022-12-29T02:13:08;100925.19;;;0.74
74915;BMP280;63475;45.140;-75.616;2022-12-29T02:14:13;100936.38;;;0.75
74915;BMP280;63475;45.140;-75.616;2022-12-29T02:15:15;100929.50;;;0.70
74915;BMP280;63475;45.140;-75.616;2022-12-29T02:17:51;100933.13;;;0.78
74915;BMP280;63475;45.140;-75.616;2022-12-29T02:28:30;100956.03;;;0.72
74915;BMP280;63475;45.140;-75.616;2022-12-29T02:33:38;100955.56;;;0.70
74915;BMP280;63475;45.140;-75.616;2022-12-29T02:34:47;100957.41;;;0.69
74915;BMP280;63475;45.140;-75.616;2022-12-29T02:36:06;100961.56;;;0.70
74915;BMP280;63475;45.140;-75.616;2022-12-29T02:39:40;100941.06;;;0.60
74915;BMP280;63475;45.140;-75.616;2022-12-29T02:41:01;100935.25;;;0.55
74915;BMP280;63475;45.140;-75.616;2022-12-29T02:43:24;100928.84;;;0.52
74915;BMP280;63475;45.140;-75.616;2022-12-29T02:44:46;100948.06;;;0.68
74915;BMP280;63475;45.140;-75.616;2022-12-29T02:45:58;100931.44;;;0.52
74915;BMP280;63475;45.140;-75.616;2022-12-29T02:47:14;100947.94;;;0.65
74915;BMP280;63475;45.140;-75.616;2022-12-29T02:48:51;100943.25;;;0.58
74915;BMP280;63475;45.140;-75.616;2022-12-29T02:51:12;100972.66;;;0.59
74915;BMP280;63475;45.140;-75.616;2022-12-29T02:52:19;100955.63;;;0.61
74915;BMP280;63475;45.140;-75.616;2022-12-29T02:53:21;100949.03;;;0.64
74915;BMP280;63475;45.140;-75.616;2022-12-29T02:54:44;100955.44;;;0.66
74915;BMP280;63475;45.140;-75.616;2022-12-29T02:55:49;100959.25;;;0.69
74915;BMP280;63475;45.140;-75.616;2022-12-29T02:56:50;100932.53;;;0.51
74915;BMP280;63475;45.140;-75.616;2022-12-29T02:58:19;100954.50;;;0.71
74915;BMP280;63475;45.140;-75.616;2022-12-29T02:59:21;100957.84;;;0.71
74915;BMP280;63475;45.140;-75.616;2022-12-29T03:00:22;100962.00;;;0.72
74915;BMP280;63475;45.140;-75.616;2022-12-29T03:03:16;100965.38;;;0.73
74915;BMP280;63475;45.140;-75.616;2022-12-29T03:04:36;100952.84;;;0.66
74915;BMP280;63475;45.140;-75.616;2022-12-29T03:06:04;100959.38;;;0.72
74915;BMP280;63475;45.140;-75.616;2022-12-29T03:07:04;100960.91;;;0.73
74915;BMP280;63475;45.140;-75.616;2022-12-29T03:09:39;100966.56;;;0.76
74915;BMP280;63475;45.140;-75.616;2022-12-29T03:11:02;100952.53;;;0.68
74915;BMP280;63475;45.140;-75.616;2022-12-29T03:15:06;100937.50;;;0.65
74915;BMP280;63475;45.140;-75.616;2022-12-29T03:17:57;100946.91;;;0.78
74915;BMP280;63475;45.140;-75.616;2022-12-29T03:19:28;100953.97;;;0.78
74915;BMP280;63475;45.140;-75.616;2022-12-29T03:20:55;100950.63;;;0.77
74915;BMP280;63475;45.140;-75.616;2022-12-29T03:22:00;100955.81;;;0.77
74915;BMP280;63475;45.140;-75.616;2022-12-29T03:23:22;100948.75;;;0.78
74915;BMP280;63475;45.140;-75.616;2022-12-29T03:24:31;100953.97;;;0.78
74915;BMP280;63475;45.140;-75.616;2022-12-29T03:25:41;100928.94;;;0.64
74915;BMP280;63475;45.140;-75.616;2022-12-29T03:26:45;100902.00;;;0.52
74915;BMP280;63475;45.140;-75.616;2022-12-29T03:27:51;100942.13;;;0.80
74915;BMP280;63475;45.140;-75.616;2022-12-29T03:28:54;100925.75;;;0.80
74915;BMP280;63475;45.140;-75.616;2022-12-29T03:30:01;100938.03;;;0.79
74915;BMP280;63475;45.140;-75.616;2022-12-29T03:31:03;100935.41;;;0.79
74915;BMP280;63475;45.140;-75.616;2022-12-29T03:32:07;100932.03;;;0.79
74915;BMP280;63475;45.140;-75.616;2022-12-29T03:33:12;100918.94;;;0.66
74915;BMP280;63475;45.140;-75.616;2022-12-29T03:34:15;100912.53;;;0.64
74915;BMP280;63475;45.140;-75.616;2022-12-29T03:35:20;100912.22;;;0.65
74915;BMP280;63475;45.140;-75.616;2022-12-29T03:36:30;100938.09;;;0.83
74915;BMP280;63475;45.140;-75.616;2022-12-29T03:37:35;100912.66;;;0.67
74915;BMP280;63475;45.140;-75.616;2022-12-29T03:38:44;100916.81;;;0.81
74915;BMP280;63475;45.140;-75.616;2022-12-29T03:39:45;100912.91;;;0.75
74915;BMP280;63475;45.140;-75.616;2022-12-29T03:40:50;100917.91;;;0.80
74915;BMP280;63475;45.140;-75.616;2022-12-29T03:42:00;100881.44;;;0.59
74915;BMP280;63475;45.140;-75.616;2022-12-29T03:43:02;100917.16;;;0.79
74915;BMP280;63475;45.140;-75.616;2022-12-29T03:44:06;100917.03;;;0.76
74915;BMP280;63475;45.140;-75.616;2022-12-29T03:45:08;100915.19;;;0.76
74915;BMP280;63475;45.140;-75.616;2022-12-29T03:46:10;100912.47;;;0.72
74915;BMP280;63475;45.140;-75.616;2022-12-29T03:47:12;100897.34;;;0.66
74915;BMP280;63475;45.140;-75.616;2022-12-29T03:48:13;100904.19;;;0.70
74915;BMP280;63475;45.140;-75.616;2022-12-29T03:49:14;100905.72;;;0.71
74915;BMP280;63475;45.140;-75.616;2022-12-29T03:50:15;100909.66;;;0.78
74915;BMP280;63475;45.140;-75.616;2022-12-29T03:51:16;100907.69;;;0.75
74915;BMP280;63475;45.140;-75.616;2022-12-29T03:52:18;100912.25;;;0.78
74915;BMP280;63475;45.140;-75.616;2022-12-29T03:53:19;100879.13;;;0.57
74915;BMP280;63475;45.140;-75.616;2022-12-29T03:54:20;100910.75;;;0.77
74915;BMP280;63475;45.140;-75.616;2022-12-29T03:55:21;100909.09;;;0.72
74915;BMP280;63475;45.140;-75.616;2022-12-29T03:56:21;100925.31;;;0.78
74915;BMP280;63475;45.140;-75.616;2022-12-29T03:57:22;100910.94;;;0.71
74915;BMP280;63475;45.140;-75.616;2022-12-29T03:58:23;100919.31;;;0.77
74915;BMP280;63475;45.140;-75.616;2022-12-29T03:59:24;100922.69;;;0.78
74915;BMP280;63475;45.140;-75.616;2022-12-29T04:00:25;100891.03;;;0.67
74915;BMP280;63475;45.140;-75.616;2022-12-29T04:01:26;100913.78;;;0.79
74915;BMP280;63475;45.140;-75.616;2022-12-29T04:02:27;100912.72;;;0.80
74915;BMP280;63475;45.140;-75.616;2022-12-29T04:03:28;100914.56;;;0.79
74915;BMP280;63475;45.140;-75.616;2022-12-29T04:04:29;100911.19;;;0.79
74915;BMP280;63475;45.140;-75.616;2022-12-29T04:05:30;100911.19;;;0.79
74915;BMP280;63475;45.140;-75.616;2022-12-29T04:06:31;100907.06;;;0.78
74915;BMP280;63475;45.140;-75.616;2022-12-29T04:07:32;100911.50;;;0.77
74915;BMP280;63475;45.140;-75.616;2022-12-29T04:08:33;100892.88;;;0.66
74915;BMP280;63475;45.140;-75.616;2022-12-29T04:09:34;100910.41;;;0.78
74915;BMP280;63475;45.140;-75.616;2022-12-29T04:10:35;100896.56;;;0.65
74915;BMP280;63475;45.140;-75.616;2022-12-29T04:11:36;100903.13;;;0.71
74915;BMP280;63475;45.140;-75.616;2022-12-29T04:12:37;100917.47;;;0.78
74915;BMP280;63475;45.140;-75.616;2022-12-29T04:13:38;100909.66;;;0.78
74915;BMP280;63475;45.140;-75.616;2022-12-29T04:14:41;100913.78;;;0.79
74915;BMP280;63475;45.140;-75.616;2022-12-29T04:15:45;100911.19;;;0.79
74915;BMP280;63475;45.140;-75.616;2022-12-29T04:16:45;100909.66;;;0.78
74915;BMP280;63475;45.140;-75.616;2022-12-29T04:17:46;100899.53;;;0.76
74915;BMP280;63475;45.140;-75.616;2022-12-29T04:18:47;100876.34;;;0.62
74915;BMP280;63475;45.140;-75.616;2022-12-29T04:19:48;100900.75;;;0.79
74915;BMP280;63475;45.140;-75.616;2022-12-29T04:20:49;100899.22;;;0.78
74915;BMP280;63475;45.140;-75.616;2022-12-29T04:22:05;100905.53;;;0.77
74915;BMP280;63475;45.140;-75.616;2022-12-29T04:23:07;100913.34;;;0.77
74915;BMP280;63475;45.140;-75.616;2022-12-29T04:24:08;100917.03;;;0.76
74915;BMP280;63475;45.140;-75.616;2022-12-29T04:25:09;100908.13;;;0.77
74915;BMP280;63475;45.140;-75.616;2022-12-29T04:26:10;100906.59;;;0.76
74915;BMP280;63475;45.140;-75.616;2022-12-29T04:27:11;100907.38;;;0.76
74915;BMP280;63475;45.140;-75.616;2022-12-29T04:28:12;100909.97;;;0.76
74915;BMP280;63475;45.140;-75.616;2022-12-29T04:29:13;100902.91;;;0.77
74915;BMP280;63475;45.140;-75.616;2022-12-29T04:30:14;100902.16;;;0.76
74915;BMP280;63475;45.140;-75.616;2022-12-29T04:31:15;100889.19;;;0.67
74915;BMP280;63475;45.140;-75.616;2022-12-29T04:32:16;100899.09;;;0.74
74915;BMP280;63475;45.140;-75.616;2022-12-29T04:33:17;100889.31;;;0.71
74915;BMP280;63475;45.140;-75.616;2022-12-29T04:34:18;100893.13;;;0.73
74915;BMP280;63475;45.140;-75.616;2022-12-29T04:35:19;100893.88;;;0.74
74915;BMP280;63475;45.140;-75.616;2022-12-29T04:36:20;100884.41;;;0.69
74915;BMP280;63475;45.140;-75.616;2022-12-29T04:37:21;100856.50;;;0.49
74915;BMP280;63475;45.140;-75.616;2022-12-29T04:38:23;100873.88;;;0.66
74915;BMP280;63475;45.140;-75.616;2022-12-29T04:39:24;100888.69;;;0.74
74915;BMP280;63475;45.140;-75.616;2022-12-29T04:40:25;100884.22;;;0.75
74915;BMP280;63475;45.140;-75.616;2022-12-29T04:41:26;100886.50;;;0.76
74915;BMP280;63475;45.140;-75.616;2022-12-29T04:42:27;100872.59;;;0.72
74915;BMP280;63475;45.140;-75.616;2022-12-29T04:43:28;100878.69;;;0.76
74915;BMP280;63475;45.140;-75.616;2022-12-29T04:44:29;100874.25;;;0.77
74915;BMP280;63475;45.140;-75.616;2022-12-29T04:45:30;100855.94;;;0.64
74915;BMP280;63475;45.140;-75.616;2022-12-29T04:46:31;100865.66;;;0.76
74915;BMP280;63475;45.140;-75.616;2022-12-29T04:47:32;100854.34;;;0.72
74915;BMP280;63475;45.140;-75.616;2022-12-29T04:48:33;100863.03;;;0.76
74915;BMP280;63475;45.140;-75.616;2022-12-29T04:49:34;100867.06;;;0.73
74915;BMP280;63475;45.140;-75.616;2022-12-29T04:50:35;100862.59;;;0.74
74915;BMP280;63475;45.140;-75.616;2022-12-29T04:51:36;100860.00;;;0.74
74915;BMP280;63475;45.140;-75.616;2022-12-29T04:52:37;100852.69;;;0.67
74915;BMP280;63475;45.140;-75.616;2022-12-29T04:53:38;100830.69;;;0.56
74915;BMP280;63475;45.140;-75.616;2022-12-29T04:54:39;100852.19;;;0.74
74915;BMP280;63475;45.140;-75.616;2022-12-29T04:55:40;100849.56;;;0.74
74915;BMP280;63475;45.140;-75.616;2022-12-29T04:56:41;100846.09;;;0.70
74915;BMP280;63475;45.140;-75.616;2022-12-29T04:57:42;100838.59;;;0.68
74915;BMP280;63475;45.140;-75.616;2022-12-29T04:58:42;100837.81;;;0.68
74915;BMP280;63475;45.140;-75.616;2022-12-29T04:59:43;100847.41;;;0.76
74915;BMP280;63475;45.140;-75.616;2022-12-29T05:00:44;100858.16;;;0.75
74915;BMP280;63475;45.140;-75.616;2022-12-29T05:01:45;100785.13;;;0.29
74915;BMP280;63475;45.140;-75.616;2022-12-29T05:02:46;100833.78;;;0.58
74915;BMP280;63475;45.140;-75.616;2022-12-29T05:03:49;100855.88;;;0.73
74915;BMP280;63475;45.140;-75.616;2022-12-29T05:04:51;100830.38;;;0.58
74915;BMP280;63475;45.140;-75.616;2022-12-29T05:05:55;100858.16;;;0.75
74915;BMP280;63475;45.140;-75.616;2022-12-29T05:06:56;100846.41;;;0.68
74915;BMP280;63475;45.140;-75.616;2022-12-29T05:07:57;100855.22;;;0.76
74915;BMP280;63475;45.140;-75.616;2022-12-29T05:08:58;100849.44;;;0.70
74915;BMP280;63475;45.140;-75.616;2022-12-29T05:09:59;100847.59;;;0.71
74915;BMP280;63475;45.140;-75.616;2022-12-29T05:11:00;100827.47;;;0.59
74915;BMP280;63475;45.140;-75.616;2022-12-29T05:12:01;100859.69;;;0.76
74915;BMP280;63475;45.140;-75.616;2022-12-29T05:13:02;100846.53;;;0.72
74915;BMP280;63475;45.140;-75.616;2022-12-29T05:14:03;100849.25;;;0.76
74915;BMP280;63475;45.140;-75.616;2022-12-29T05:15:05;100851.84;;;0.76
74915;BMP280;63475;45.140;-75.616;2022-12-29T05:16:07;100848.94;;;0.77
74915;BMP280;63475;45.140;-75.616;2022-12-29T05:17:07;100847.84;;;0.78
74915;BMP280;63475;45.140;-75.616;2022-12-29T05:18:08;100845.56;;;0.77
74915;BMP280;63475;45.140;-75.616;2022-12-29T05:19:09;100846.66;;;0.76
74915;BMP280;63475;45.140;-75.616;2022-12-29T05:20:10;100837.81;;;0.68
74915;BMP280;63475;45.140;-75.616;2022-12-29T05:21:11;100857.38;;;0.74
74915;BMP280;63475;45.140;-75.616;2022-12-29T05:22:12;100853.91;;;0.70
74915;BMP280;63475;45.140;-75.616;2022-12-29T05:23:13;100855.09;;;0.72
74915;BMP280;63475;45.140;-75.616;2022-12-29T05:24:15;100847.16;;;0.69
74915;BMP280;63475;45.140;-75.616;2022-12-29T05:25:16;100858.47;;;0.73
74915;BMP280;63475;45.140;-75.616;2022-12-29T05:26:17;100861.84;;;0.73
74915;BMP280;63475;45.140;-75.616;2022-12-29T05:27:18;100853.03;;;0.66
74915;BMP280;63475;45.140;-75.616;2022-12-29T05:28:19;100847.56;;;0.59
74915;BMP280;63475;45.140;-75.616;2022-12-29T05:29:19;100860.53;;;0.67
74915;BMP280;63475;45.140;-75.616;2022-12-29T05:30:20;100852.13;;;0.62
74915;BMP280;63475;45.140;-75.616;2022-12-29T05:31:21;100874.13;;;0.73
74915;BMP280;63475;45.140;-75.616;2022-12-29T05:32:22;100848.69;;;0.70
74915;BMP280;63475;45.140;-75.616;2022-12-29T05:33:23;100867.50;;;0.76
74915;BMP280;63475;45.140;-75.616;2022-12-29T05:34:24;100860.31;;;0.72
74915;BMP280;63475;45.140;-75.616;2022-12-29T05:35:25;100857.38;;;0.74
74915;BMP280;63475;45.140;-75.616;2022-12-29T05:36:26;100855.88;;;0.73
74915;BMP280;63475;45.140;-75.616;2022-12-29T05:37:27;100836.81;;;0.60
74915;BMP280;63475;45.140;-75.616;2022-12-29T05:38:28;100860.31;;;0.72
74915;BMP280;63475;45.140;-75.616;2022-12-29T05:39:29;100858.03;;;0.71
74915;BMP280;63475;45.140;-75.616;2022-12-29T05:40:30;100869.03;;;0.77
74915;BMP280;63475;45.140;-75.616;2022-12-29T05:41:31;100869.03;;;0.77
74915;BMP280;63475;45.140;-75.616;2022-12-29T05:42:32;100871.63;;;0.77
74915;BMP280;63475;45.140;-75.616;2022-12-29T05:43:33;100875.31;;;0.76
74915;BMP280;63475;45.140;-75.616;2022-12-29T05:44:34;100871.94;;;0.75
74915;BMP280;63475;45.140;-75.616;2022-12-29T05:45:36;100876.09;;;0.76
74915;BMP280;63475;45.140;-75.616;2022-12-29T05:46:37;100848.75;;;0.61
74915;BMP280;63475;45.140;-75.616;2022-12-29T05:47:38;100880.53;;;0.76
74915;BMP280;63475;45.140;-75.616;2022-12-29T05:48:38;100876.59;;;0.69
74915;BMP280;63475;45.140;-75.616;2022-12-29T05:49:39;100885.00;;;0.75
74915;BMP280;63475;45.140;-75.616;2022-12-29T05:50:40;100855.22;;;0.55
74915;BMP280;63475;45.140;-75.616;2022-12-29T05:51:41;100884.66;;;0.77
74915;BMP280;63475;45.140;-75.616;2022-12-29T05:52:42;100879.34;;;0.73
74915;BMP280;63475;45.140;-75.616;2022-12-29T05:53:43;100876.72;;;0.73
74915;BMP280;63475;45.140;-75.616;2022-12-29T05:54:44;100882.06;;;0.77
74915;BMP280;63475;45.140;-75.616;2022-12-29T05:55:48;100882.06;;;0.77
74915;BMP280;63475;45.140;-75.616;2022-12-29T05:56:49;100875.00;;;0.77
74915;BMP280;63475;45.140;-75.616;2022-12-29T05:57:50;100868.34;;;0.67
74915;BMP280;63475;45.140;-75.616;2022-12-29T05:58:51;100873.16;;;0.78
74915;BMP280;63475;45.140;-75.616;2022-12-29T05:59:52;100868.78;;;0.69
74915;BMP280;63475;45.140;-75.616;2022-12-29T06:00:53;100857.16;;;0.67
74915;BMP280;63475;45.140;-75.616;2022-12-29T06:01:54;100873.91;;;0.78
74915;BMP280;63475;45.140;-75.616;2022-12-29T06:02:55;100872.59;;;0.72
74915;BMP280;63475;45.140;-75.616;2022-12-29T06:03:55;100867.69;;;0.70
74915;BMP280;63475;45.140;-75.616;2022-12-29T06:04:56;100885.44;;;0.77
74915;BMP280;63475;45.140;-75.616;2022-12-29T06:05:57;100880.41;;;0.72
74915;BMP280;63475;45.140;-75.616;2022-12-29T06:06:58;100880.84;;;0.74
74915;BMP280;63475;45.140;-75.616;2022-12-29T06:07:59;100883.25;;;0.79
74915;BMP280;63475;45.140;-75.616;2022-12-29T06:09:00;100872.59;;;0.72
74915;BMP280;63475;45.140;-75.616;2022-12-29T06:10:01;100883.59;;;0.78
74915;BMP280;63475;45.140;-75.616;2022-12-29T06:11:02;100889.56;;;0.78
74915;BMP280;63475;45.140;-75.616;2022-12-29T06:12:03;100882.06;;;0.77
74915;BMP280;63475;45.140;-75.616;2022-12-29T06:13:04;100889.56;;;0.78
74915;BMP280;63475;45.140;-75.616;2022-12-29T06:14:06;100860.84;;;0.66
74915;BMP280;63475;45.140;-75.616;2022-12-29T06:15:07;100888.81;;;0.78
74915;BMP280;63475;45.140;-75.616;2022-12-29T06:16:08;100885.44;;;0.77
74915;BMP280;63475;45.140;-75.616;2022-12-29T06:17:09;100885.75;;;0.76
74915;BMP280;63475;45.140;-75.616;2022-12-29T06:18:10;100885.50;;;0.68
74915;BMP280;63475;45.140;-75.616;2022-12-29T06:19:11;100875.72;;;0.65
74915;BMP280;63475;45.140;-75.616;2022-12-29T06:20:12;100861.97;;;0.56
74915;BMP280;63475;45.140;-75.616;2022-12-29T06:21:13;100889.13;;;0.76
74915;BMP280;63475;45.140;-75.616;2022-12-29T06:22:14;100877.88;;;0.63
74915;BMP280;63475;45.140;-75.616;2022-12-29T06:23:15;100906.59;;;0.76
74915;BMP280;63475;45.140;-75.616;2022-12-29T06:24:16;100882.97;;;0.60
74915;BMP280;63475;45.140;-75.616;2022-12-29T06:25:17;100912.59;;;0.76
74915;BMP280;63475;45.140;-75.616;2022-12-29T06:26:18;100909.53;;;0.74
74915;BMP280;63475;45.140;-75.616;2022-12-29T06:27:19;100880.53;;;0.55
74915;BMP280;63475;45.140;-75.616;2022-12-29T06:28:21;100915.84;;;0.73
74915;BMP280;63475;45.140;-75.616;2022-12-29T06:29:22;100916.91;;;0.72